Time;durP1;ratioP1;P1;durP2;ratioP2;P2;SDS_P1;SDS_P2;PMS_P1;PMS_P2;Temp;Humidity;BMP_temperature;BMP_pressure;BME280_temperature;BME280_humidity;BME280_pressure;Samples;Min_cycle;Max_cycle;Signal;HPM_P1;HPM_P2
2022/07/07 00:01:36;;;;;;;11.93;8.32;;;;;;;;;;7732920;23;20027;-62
2022/07/07 00:04:37;;;;;;;10.43;8.50;;;;;;;;;;7738287;23;20026;-64
2022/07/07 00:07:37;;;;;;;13.10;8.63;;;;;;;;;;7742352;23;20382;-64
2022/07/07 00:10:38;;;;;;;14.70;8.32;;;;;;;;;;7741865;23;20496;-61
2022/07/07 00:13:38;;;;;;;12.80;9.00;;;;;;;;;;7743696;23;20448;-63
2022/07/07 00:16:39;;;;;;;12.77;9.70;;;;;;;;;;7741058;23;20043;-61
2022/07/07 00:19:39;;;;;;;15.15;9.73;;;;;;;;;;7745074;23;20035;-63
2022/07/07 00:22:40;;;;;;;12.43;9.13;;;;;;;;;;7748025;23;20367;-61
2022/07/07 00:25:40;;;;;;;10.70;8.48;;;;;;;;;;7745611;23;20455;-63
2022/07/07 00:28:41;;;;;;;12.52;8.95;;;;;;;;;;7747088;23;20025;-65
2022/07/07 00:31:41;;;;;;;12.48;8.32;;;;;;;;;;7747683;23;20048;-63
2022/07/07 00:34:42;;;;;;;13.10;9.40;;;;;;;;;;7747192;23;20094;-64
2022/07/07 00:37:43;;;;;;;12.55;8.55;;;;;;;;;;7747413;23;20461;-62
2022/07/07 00:40:52;;;;;;;16.00;8.90;;;;;;;;;;7746699;23;20543;-62
2022/07/07 00:43:52;;;;;;;12.20;8.73;;;;;;;;;;7746611;23;20020;-62
2022/07/07 00:46:54;;;;;;;12.18;8.52;;;;;;;;;;7746534;23;20042;-62
2022/07/07 00:49:55;;;;;;;11.85;8.60;;;;;;;;;;7746887;23;20039;-62
2022/07/07 00:52:55;;;;;;;10.35;8.23;;;;;;;;;;7747646;23;20024;-62
2022/07/07 00:55:56;;;;;;;14.25;9.00;;;;;;;;;;7746443;23;20083;-62
2022/07/07 00:58:59;;;;;;;11.75;9.07;;;;;;;;;;7757305;23;20024;-62
2022/07/07 01:02:01;;;;;;;10.68;9.00;;;;;;;;;;7746779;23;20020;-62
2022/07/07 01:05:05;;;;;;;11.82;8.43;;;;;;;;;;7746252;23;20511;-64
2022/07/07 01:08:08;;;;;;;13.50;9.10;;;;;;;;;;7746948;23;20016;-63
2022/07/07 01:11:09;;;;;;;11.70;8.65;;;;;;;;;;7745510;23;20759;-64
2022/07/07 01:14:09;;;;;;;14.35;9.15;;;;;;;;;;7746739;23;20028;-63
2022/07/07 01:17:10;;;;;;;13.95;8.75;;;;;;;;;;7745536;23;20836;-63
2022/07/07 01:20:13;;;;;;;12.23;8.60;;;;;;;;;;7746699;23;20538;-62
2022/07/07 01:23:14;;;;;;;12.25;9.07;;;;;;;;;;7747269;23;20047;-63
2022/07/07 01:26:15;;;;;;;12.37;8.57;;;;;;;;;;7746047;23;20383;-63
2022/07/07 01:29:15;;;;;;;13.05;8.70;;;;;;;;;;7746475;23;20019;-63
2022/07/07 01:32:16;;;;;;;17.63;9.35;;;;;;;;;;7745673;23;20051;-63
2022/07/07 01:35:17;;;;;;;15.85;10.18;;;;;;;;;;7742551;23;20099;-63
2022/07/07 01:38:17;;;;;;;15.00;10.20;;;;;;;;;;7741752;23;20022;-63
2022/07/07 01:41:18;;;;;;;13.40;8.73;;;;;;;;;;7741998;23;20020;-62
2022/07/07 01:44:19;;;;;;;12.82;9.07;;;;;;;;;;7741158;23;20091;-63
2022/07/07 01:47:21;;;;;;;14.45;9.63;;;;;;;;;;7739563;23;20078;-63
2022/07/07 01:50:21;;;;;;;;;;;;;;;;;;7743463;23;20020;-63
2022/07/07 01:53:22;;;;;;;15.63;9.60;;;;;;;;;;7742280;23;19958;-64
2022/07/07 01:56:22;;;;;;;13.63;9.60;;;;;;;;;;7741088;23;20035;-63
2022/07/07 01:59:24;;;;;;;15.52;9.40;;;;;;;;;;7740489;23;20020;-64
2022/07/07 02:02:25;;;;;;;;;;;;;;;;;;7716319;23;20070;-63
2022/07/07 02:05:25;;;;;;;15.13;9.27;;;;;;;;;;7740794;23;19915;-63
2022/07/07 02:08:26;;;;;;;15.60;9.13;;;;;;;;;;7742406;23;20016;-64
2022/07/07 02:11:27;;;;;;;13.90;9.15;;;;;;;;;;7742817;23;20020;-63
2022/07/07 02:14:28;;;;;;;11.55;8.65;;;;;;;;;;7743122;23;20055;-63
2022/07/07 02:17:28;;;;;;;13.18;9.45;;;;;;;;;;7740733;23;20020;-64
2022/07/07 02:20:29;;;;;;;13.48;9.25;;;;;;;;;;7744458;23;20012;-64
2022/07/07 02:23:30;;;;;;;12.52;9.00;;;;;;;;;;7743962;23;20022;-63
2022/07/07 02:26:33;;;;;;;14.63;9.03;;;;;;;;;;7742351;23;20498;-63
2022/07/07 02:29:33;;;;;;;13.25;9.57;;;;;;;;;;7744821;23;20083;-63
2022/07/07 02:32:34;;;;;;;12.95;8.95;;;;;;;;;;7742764;23;20087;-63
2022/07/07 02:35:34;;;;;;;11.73;9.43;;;;;;;;;;7742063;23;20016;-64
2022/07/07 02:38:37;;;;;;;15.13;9.55;;;;;;;;;;7742509;23;20020;-64
2022/07/07 02:41:37;;;;;;;15.13;9.40;;;;;;;;;;7739849;23;20495;-63
2022/07/07 02:44:38;;;;;;;14.35;9.80;;;;;;;;;;7753202;23;20069;-62
2022/07/07 02:47:38;;;;;;;15.48;10.30;;;;;;;;;;7739401;23;20024;-62
2022/07/07 02:50:40;;;;;;;17.83;9.35;;;;;;;;;;7740435;23;20376;-63
2022/07/07 02:53:41;;;;;;;12.93;8.88;;;;;;;;;;7744654;23;20095;-63
2022/07/07 02:56:41;;;;;;;15.85;10.55;;;;;;;;;;7740088;23;20881;-63
2022/07/07 02:59:42;;;;;;;14.55;10.10;;;;;;;;;;7740883;23;20016;-63
2022/07/07 03:02:43;;;;;;;11.55;9.27;;;;;;;;;;7742321;23;20540;-63
2022/07/07 03:05:44;;;;;;;11.80;8.83;;;;;;;;;;7742261;23;20103;-63
2022/07/07 03:08:44;;;;;;;12.18;9.05;;;;;;;;;;7740825;23;20020;-61
2022/07/07 03:11:45;;;;;;;13.02;8.82;;;;;;;;;;7742990;23;20042;-62
2022/07/07 03:14:45;;;;;;;15.68;9.30;;;;;;;;;;7746800;23;20095;-63
2022/07/07 03:17:48;;;;;;;11.95;8.85;;;;;;;;;;7743080;23;20026;-64
2022/07/07 03:20:48;;;;;;;13.85;9.57;;;;;;;;;;7750437;23;20332;-64
2022/07/07 03:23:49;;;;;;;14.45;9.40;;;;;;;;;;7745192;23;20027;-61
2022/07/07 03:26:49;;;;;;;13.52;8.98;;;;;;;;;;7746681;23;20050;-64
2022/07/07 03:29:51;;;;;;;15.30;9.45;;;;;;;;;;7743469;23;20058;-63
2022/07/07 03:32:51;;;;;;;14.40;9.07;;;;;;;;;;7747775;23;20067;-63
2022/07/07 03:35:52;;;;;;;12.77;8.63;;;;;;;;;;7742255;23;20769;-62
2022/07/07 03:38:52;;;;;;;12.27;9.43;;;;;;;;;;7744161;23;20091;-63
2022/07/07 03:41:53;;;;;;;13.85;9.60;;;;;;;;;;7739890;23;20012;-63
2022/07/07 03:44:53;;;;;;;13.85;9.98;;;;;;;;;;7742696;23;20012;-62
2022/07/07 03:47:54;;;;;;;13.63;9.55;;;;;;;;;;7745316;23;20150;-63
2022/07/07 03:50:55;;;;;;;13.48;9.35;;;;;;;;;;7752323;23;20099;-61
2022/07/07 03:53:56;;;;;;;16.37;9.73;;;;;;;;;;7748132;23;20024;-61
2022/07/07 03:56:56;;;;;;;14.68;10.32;;;;;;;;;;7747590;23;20700;-62
2022/07/07 03:59:57;;;;;;;15.50;9.85;;;;;;;;;;7747826;23;20070;-61
2022/07/07 04:02:57;;;;;;;16.33;10.25;;;;;;;;;;7747013;23;20042;-61
2022/07/07 04:05:58;;;;;;;15.15;10.27;;;;;;;;;;7743953;23;20012;-61
2022/07/07 04:08:58;;;;;;;21.38;12.77;;;;;;;;;;7744111;23;20087;-61
2022/07/07 04:11:59;;;;;;;16.67;13.32;;;;;;;;;;7746001;23;20023;-63
2022/07/07 04:15:00;;;;;;;17.48;12.80;;;;;;;;;;7747059;23;20020;-63
2022/07/07 04:18:01;;;;;;;22.23;16.33;;;;;;;;;;7746080;23;20023;-62
2022/07/07 04:21:02;;;;;;;29.23;22.80;;;;;;;;;;7743088;23;20057;-59
2022/07/07 04:24:03;;;;;;;33.53;24.30;;;;;;;;;;7754835;23;20112;-63
2022/07/07 04:27:05;;;;;;;32.05;23.27;;;;;;;;;;7742268;23;20250;-62
2022/07/07 04:30:07;;;;;;;23.38;18.50;;;;;;;;;;7744660;23;20111;-62
2022/07/07 04:33:08;;;;;;;26.23;17.48;;;;;;;;;;7747709;23;20020;-63
2022/07/07 04:36:11;;;;;;;23.98;16.98;;;;;;;;;;7747076;23;20051;-62
2022/07/07 04:39:11;;;;;;;21.30;16.60;;;;;;;;;;7744241;23;20039;-62
2022/07/07 04:42:12;;;;;;;22.88;16.90;;;;;;;;;;7743374;23;20020;-65
2022/07/07 04:45:12;;;;;;;23.77;16.38;;;;;;;;;;7741200;23;20087;-64
2022/07/07 04:48:13;;;;;;;21.73;16.23;;;;;;;;;;7746123;23;20080;-63
2022/07/07 04:51:14;;;;;;;23.75;16.38;;;;;;;;;;7746433;23;20143;-63
2022/07/07 04:54:15;;;;;;;20.80;15.63;;;;;;;;;;7746113;23;20345;-63
2022/07/07 04:57:15;;;;;;;20.67;16.25;;;;;;;;;;7746814;23;20016;-63
2022/07/07 05:00:16;;;;;;;20.38;15.45;;;;;;;;;;7744010;23;20016;-62
2022/07/07 05:03:17;;;;;;;27.00;16.10;;;;;;;;;;7744551;23;20055;-63
2022/07/07 05:06:17;;;;;;;20.63;15.70;;;;;;;;;;7745198;23;20020;-63
2022/07/07 05:09:18;;;;;;;18.50;14.40;;;;;;;;;;7746443;23;20040;-63
2022/07/07 05:12:19;;;;;;;21.87;14.20;;;;;;;;;;7745575;23;20500;-62
2022/07/07 05:15:19;;;;;;;21.23;13.70;;;;;;;;;;7742337;23;20046;-62
2022/07/07 05:18:20;;;;;;;19.58;13.93;;;;;;;;;;7743536;23;20031;-63
2022/07/07 05:21:20;;;;;;;21.98;13.55;;;;;;;;;;7744203;23;20463;-61
2022/07/07 05:24:21;;;;;;;19.07;13.57;;;;;;;;;;7743869;23;20781;-62
2022/07/07 05:27:22;;;;;;;20.45;13.75;;;;;;;;;;7745547;23;20138;-61
2022/07/07 05:30:23;;;;;;;20.65;13.93;;;;;;;;;;7746380;23;20058;-63
2022/07/07 05:33:23;;;;;;;23.08;13.13;;;;;;;;;;7746569;23;20020;-60
2022/07/07 05:36:24;;;;;;;25.10;13.93;;;;;;;;;;7748642;23;20450;-62
2022/07/07 05:39:24;;;;;;;20.63;14.07;;;;;;;;;;7744739;23;20023;-63
2022/07/07 05:42:25;;;;;;;19.77;13.57;;;;;;;;;;7743798;23;20020;-62
2022/07/07 05:45:26;;;;;;;21.87;14.83;;;;;;;;;;7744324;23;20030;-61
2022/07/07 05:48:27;;;;;;;22.53;16.70;;;;;;;;;;7744440;23;20050;-62
2022/07/07 05:51:28;;;;;;;29.85;18.10;;;;;;;;;;7745619;23;20016;-62
2022/07/07 05:54:29;;;;;;;23.53;16.77;;;;;;;;;;7746277;23;20020;-61
2022/07/07 05:57:31;;;;;;;27.53;19.83;;;;;;;;;;7742140;23;20052;-60
2022/07/07 06:00:32;;;;;;;24.35;18.08;;;;;;;;;;7741021;23;20518;-60
2022/07/07 06:03:32;;;;;;;23.77;16.90;;;;;;;;;;7741117;23;20026;-62
2022/07/07 06:06:33;;;;;;;23.27;15.80;;;;;;;;;;7742053;23;20047;-62
2022/07/07 06:09:34;;;;;;;23.73;15.60;;;;;;;;;;7744566;23;20096;-62
2022/07/07 06:12:34;;;;;;;20.70;14.40;;;;;;;;;;7745863;23;20066;-63
2022/07/07 06:15:35;;;;;;;23.48;14.88;;;;;;;;;;7745922;23;20358;-61
2022/07/07 06:18:36;;;;;;;23.67;14.33;;;;;;;;;;7744971;23;20351;-61
2022/07/07 06:21:37;;;;;;;23.35;14.10;;;;;;;;;;7745984;23;20039;-60
2022/07/07 06:24:38;;;;;;;17.00;13.65;;;;;;;;;;7745367;23;20107;-61
2022/07/07 06:27:39;;;;;;;20.07;13.63;;;;;;;;;;7745217;23;20347;-62
2022/07/07 06:30:40;;;;;;;19.73;13.60;;;;;;;;;;7742750;23;20095;-62
2022/07/07 06:33:40;;;;;;;19.20;12.50;;;;;;;;;;7742194;23;20024;-65
2022/07/07 06:36:41;;;;;;;15.57;11.83;;;;;;;;;;7744652;23;20017;-61
2022/07/07 06:39:41;;;;;;;14.40;11.13;;;;;;;;;;7742231;23;20075;-61
2022/07/07 06:42:42;;;;;;;14.40;11.03;;;;;;;;;;7740348;23;20451;-61
2022/07/07 06:45:43;;;;;;;13.87;9.07;;;;;;;;;;7743713;23;20359;-61
2022/07/07 06:48:44;;;;;;;11.83;9.27;;;;;;;;;;7743815;23;20023;-61
2022/07/07 06:51:44;;;;;;;12.85;9.23;;;;;;;;;;7745292;23;20062;-60
2022/07/07 06:54:45;;;;;;;10.23;6.87;;;;;;;;;;7745087;23;20012;-61
2022/07/07 06:57:45;;;;;;;8.33;6.67;;;;;;;;;;7745385;23;20091;-61
2022/07/07 07:00:46;;;;;;;11.63;6.73;;;;;;;;;;7741292;23;20038;-61
2022/07/07 07:03:46;;;;;;;7.30;4.70;;;;;;;;;;7743468;23;20607;-60
2022/07/07 07:06:47;;;;;;;8.07;4.90;;;;;;;;;;7716199;23;20336;-61
2022/07/07 07:09:47;;;;;;;5.97;4.00;;;;;;;;;;7745886;23;20034;-62
2022/07/07 07:12:48;;;;;;;9.30;3.40;;;;;;;;;;7744883;23;20459;-62
2022/07/07 07:15:49;;;;;;;11.20;5.43;;;;;;;;;;7744895;23;20397;-62
2022/07/07 07:18:50;;;;;;;9.13;4.73;;;;;;;;;;7745329;23;20012;-62
2022/07/07 07:21:50;;;;;;;9.00;4.27;;;;;;;;;;7746218;23;20090;-62
2022/07/07 07:24:51;;;;;;;9.63;5.40;;;;;;;;;;7745296;23;20364;-63
2022/07/07 07:27:51;;;;;;;10.00;6.00;;;;;;;;;;7744743;23;20495;-63
2022/07/07 07:30:52;;;;;;;8.57;5.93;;;;;;;;;;7745288;23;20020;-63
2022/07/07 07:33:53;;;;;;;12.47;5.77;;;;;;;;;;7745094;23;20456;-63
2022/07/07 07:36:53;;;;;;;10.13;5.10;;;;;;;;;;7745110;23;20103;-63
2022/07/07 07:39:54;;;;;;;10.13;6.03;;;;;;;;;;7745568;23;20171;-64
2022/07/07 07:42:54;;;;;;;12.63;5.93;;;;;;;;;;7744988;23;20090;-63
2022/07/07 07:45:55;;;;;;;10.73;5.90;;;;;;;;;;7744967;23;20020;-63
2022/07/07 07:48:55;;;;;;;8.70;6.33;;;;;;;;;;7745754;23;20020;-62
2022/07/07 07:51:56;;;;;;;9.07;6.20;;;;;;;;;;7746853;23;20111;-63
2022/07/07 07:54:57;;;;;;;9.20;6.00;;;;;;;;;;7747021;23;20103;-62
2022/07/07 07:57:57;;;;;;;7.97;5.90;;;;;;;;;;7744775;23;20457;-61
2022/07/07 08:00:58;;;;;;;9.30;6.17;;;;;;;;;;7743886;23;20722;-63
2022/07/07 08:03:58;;;;;;;13.53;7.27;;;;;;;;;;7743126;23;20595;-62
2022/07/07 08:06:59;;;;;;;10.83;7.00;;;;;;;;;;7744980;23;20164;-60
2022/07/07 08:10:00;;;;;;;14.40;7.30;;;;;;;;;;7741644;23;20024;-63
2022/07/07 08:13:00;;;;;;;12.68;7.50;;;;;;;;;;7741436;23;20024;-63
2022/07/07 08:16:01;;;;;;;11.90;7.70;;;;;;;;;;7744135;23;20382;-63
2022/07/07 08:19:02;;;;;;;14.23;7.53;;;;;;;;;;7746638;23;20339;-63
2022/07/07 08:22:02;;;;;;;11.07;7.97;;;;;;;;;;7745672;23;20087;-62
2022/07/07 08:25:04;;;;;;;12.33;6.83;;;;;;;;;;7747076;23;20070;-63
2022/07/07 08:28:04;;;;;;;10.25;6.85;;;;;;;;;;7746791;23;20020;-62
2022/07/07 08:31:06;;;;;;;12.67;7.73;;;;;;;;;;7747042;23;20031;-61
2022/07/07 08:34:07;;;;;;;;;;;;;;;;;;7745606;23;20054;-63
2022/07/07 08:37:08;;;;;;;9.50;6.28;;;;;;;;;;7744555;23;19924;-61
2022/07/07 08:40:09;;;;;;;10.97;7.00;;;;;;;;;;7744735;23;20099;-66
2022/07/07 08:43:10;;;;;;;7.57;5.35;;;;;;;;;;7747483;23;20055;-64
2022/07/07 08:46:11;;;;;;;12.13;5.30;;;;;;;;;;7746707;23;20091;-63
2022/07/07 08:49:12;;;;;;;18.58;12.20;;;;;;;;;;7746809;23;20486;-63
2022/07/07 08:52:13;;;;;;;8.67;4.77;;;;;;;;;;7747613;23;20087;-62
2022/07/07 08:55:15;;;;;;;9.65;5.57;;;;;;;;;;7745695;23;20099;-63
2022/07/07 08:58:18;;;;;;;;;;;;;;;;;;7746327;23;20024;-63
2022/07/07 09:01:19;;;;;;;8.75;5.30;;;;;;;;;;7745019;23;20006;-62
2022/07/07 09:04:19;;;;;;;7.40;4.80;;;;;;;;;;7745386;23;20363;-62
2022/07/07 09:07:20;;;;;;;10.70;5.80;;;;;;;;;;7746298;23;20753;-62
2022/07/07 09:10:47;;;;;;;9.40;5.00;;;;;;;;;;7746384;23;20047;-63
2022/07/07 09:13:48;;;;;;;8.50;5.47;;;;;;;;;;7740648;23;20073;-64
2022/07/07 09:16:49;;;;;;;7.37;5.23;;;;;;;;;;7745920;23;20436;-62
2022/07/07 09:20:13;;;;;;;8.17;6.07;;;;;;;;;;7753881;23;20098;-62
2022/07/07 09:23:13;;;;;;;8.45;5.45;;;;;;;;;;7745794;23;20360;-63
2022/07/07 09:26:42;;;;;;;8.07;5.40;;;;;;;;;;7744933;23;20103;-64
2022/07/07 09:29:42;;;;;;;8.45;5.43;;;;;;;;;;7745388;23;20020;-64
2022/07/07 09:32:46;;;;;;;8.87;5.23;;;;;;;;;;7738752;23;20024;-61
2022/07/07 09:39:08;;;;;;;8.68;5.50;;;;;;;;;;7734884;23;20131;-63
2022/07/07 09:42:26;;;;;;;7.27;5.20;;;;;;;;;;7731069;23;20016;-61
2022/07/07 09:45:27;;;;;;;7.45;5.90;;;;;;;;;;7732197;23;21013;-63
2022/07/07 09:48:28;;;;;;;7.43;5.80;;;;;;;;;;7734666;23;20024;-62
2022/07/07 09:51:33;;;;;;;6.53;5.03;;;;;;;;;;7734614;23;20016;-62
2022/07/07 09:54:45;;;;;;;7.78;5.22;;;;;;;;;;7730990;23;20503;-63
2022/07/07 09:57:46;;;;;;;9.60;5.15;;;;;;;;;;7732747;23;20370;-62
2022/07/07 10:00:46;;;;;;;13.10;5.13;;;;;;;;;;7733449;23;20031;-63
2022/07/07 10:03:47;;;;;;;6.67;4.83;;;;;;;;;;7734129;23;20050;-63
2022/07/07 10:06:48;;;;;;;8.33;4.50;;;;;;;;;;7735378;23;20020;-62
2022/07/07 10:10:03;;;;;;;11.50;4.82;;;;;;;;;;7736271;23;20415;-61
2022/07/07 10:13:04;;;;;;;7.18;4.70;;;;;;;;;;7733988;23;20095;-62
2022/07/07 10:16:05;;;;;;;7.07;4.85;;;;;;;;;;7733599;23;20830;-62
2022/07/07 10:19:08;;;;;;;8.23;5.20;;;;;;;;;;7747313;23;20073;-62
2022/07/07 10:22:12;;;;;;;6.90;4.30;;;;;;;;;;7737220;23;20471;-63
2022/07/07 10:25:14;;;;;;;6.03;4.97;;;;;;;;;;7730894;23;20027;-62
2022/07/07 10:28:14;;;;;;;7.22;4.88;;;;;;;;;;7736869;23;20115;-63
2022/07/07 10:31:26;;;;;;;6.87;4.37;;;;;;;;;;7734319;23;20444;-62
2022/07/07 10:34:28;;;;;;;6.50;4.63;;;;;;;;;;7732837;23;20020;-61
2022/07/07 10:37:39;;;;;;;;;;;;;;;;;;7736554;23;20024;-62
2022/07/07 10:40:51;;;;;;;7.63;4.75;;;;;;;;;;7734586;23;20415;-60
2022/07/07 10:44:07;;;;;;;7.03;4.32;;;;;;;;;;7747687;23;20408;-62
2022/07/07 10:47:16;;;;;;;6.50;4.43;;;;;;;;;;7734277;23;20064;-61
2022/07/07 10:50:29;;;;;;;7.25;4.93;;;;;;;;;;7737260;23;20016;-63
2022/07/07 10:53:33;;;;;;;8.30;4.80;;;;;;;;;;7734791;23;20030;-62
2022/07/07 10:56:51;;;;;;;10.50;5.13;;;;;;;;;;7733865;23;20331;-62
2022/07/07 11:00:09;;;;;;;7.38;4.68;;;;;;;;;;7736427;23;20460;-62
2022/07/07 11:03:13;;;;;;;6.35;4.57;;;;;;;;;;7734063;23;20542;-61
2022/07/07 11:06:14;;;;;;;7.90;4.50;;;;;;;;;;7734330;23;20020;-62
2022/07/07 11:09:14;;;;;;;9.30;4.83;;;;;;;;;;7735377;23;20054;-63
2022/07/07 11:12:34;;;;;;;8.20;4.73;;;;;;;;;;7735909;23;20020;-62
2022/07/07 11:15:35;;;;;;;8.48;5.00;;;;;;;;;;7734154;23;20023;-63
2022/07/07 11:18:36;;;;;;;8.57;4.97;;;;;;;;;;7736116;23;20022;-62
2022/07/07 11:21:45;;;;;;;11.97;5.67;;;;;;;;;;7736942;23;20012;-61
2022/07/07 11:24:45;;;;;;;9.90;4.70;;;;;;;;;;7734295;23;20023;-61
2022/07/07 11:27:48;;;;;;;8.77;4.83;;;;;;;;;;7738288;23;20032;-63
2022/07/07 11:30:49;;;;;;;6.15;4.75;;;;;;;;;;7738902;23;20394;-63
2022/07/07 11:33:55;;;;;;;8.40;4.77;;;;;;;;;;7736964;23;20024;-62
2022/07/07 11:36:56;;;;;;;7.00;4.80;;;;;;;;;;7738096;23;20578;-62
2022/07/07 11:39:57;;;;;;;9.00;5.18;;;;;;;;;;7736772;23;20333;-63
2022/07/07 11:43:01;;;;;;;7.13;5.07;;;;;;;;;;7734806;23;20801;-61
2022/07/07 11:46:02;;;;;;;8.32;4.63;;;;;;;;;;7738759;23;20081;-61
2022/07/07 11:49:03;;;;;;;5.10;4.10;;;;;;;;;;7728975;23;20024;-62
2022/07/07 11:52:04;;;;;;;8.07;4.73;;;;;;;;;;7739103;22;20636;-61
2022/07/07 11:55:05;;;;;;;11.75;4.90;;;;;;;;;;7736767;22;20110;-61
2022/07/07 11:58:07;;;;;;;7.25;4.47;;;;;;;;;;7733414;22;20435;-61
2022/07/07 12:01:11;;;;;;;7.03;4.13;;;;;;;;;;7736367;22;20024;-61
2022/07/07 12:04:20;;;;;;;9.43;4.65;;;;;;;;;;7732461;22;20028;-62
2022/07/07 12:07:21;;;;;;;9.38;4.25;;;;;;;;;;7735945;22;20028;-59
2022/07/07 12:10:24;;;;;;;6.10;4.60;;;;;;;;;;7735178;23;20047;-63
2022/07/07 12:13:26;;;;;;;7.10;4.35;;;;;;;;;;7734642;22;20122;-63
2022/07/07 12:16:43;;;;;;;7.78;4.18;;;;;;;;;;7736232;22;20081;-60
2022/07/07 12:19:48;;;;;;;6.68;4.15;;;;;;;;;;7735969;22;20040;-63
2022/07/07 12:22:54;;;;;;;5.32;3.95;;;;;;;;;;7729651;22;20024;-62
2022/07/07 12:26:17;;;;;;;6.07;4.15;;;;;;;;;;7732732;22;20107;-63
2022/07/07 12:29:18;;;;;;;5.07;4.03;;;;;;;;;;7731746;22;20107;-63
2022/07/07 12:32:23;;;;;;;5.10;3.88;;;;;;;;;;7734989;22;20095;-60
2022/07/07 12:35:38;;;;;;;6.13;3.80;;;;;;;;;;7734572;22;20016;-61
2022/07/07 12:38:47;;;;;;;7.57;4.40;;;;;;;;;;7735621;22;20151;-61
2022/07/07 12:41:51;;;;;;;7.20;4.20;;;;;;;;;;7736899;22;20142;-62
2022/07/07 12:45:08;;;;;;;8.60;4.10;;;;;;;;;;7733765;22;20132;-60
2022/07/07 12:48:16;;;;;;;6.70;3.80;;;;;;;;;;7734121;22;20035;-61
2022/07/07 12:51:23;;;;;;;6.97;3.97;;;;;;;;;;7738976;23;20047;-63
2022/07/07 12:54:29;;;;;;;4.68;3.95;;;;;;;;;;7735261;23;20024;-62
2022/07/07 12:57:30;;;;;;;8.75;4.03;;;;;;;;;;7736906;23;20142;-61
2022/07/07 13:00:30;;;;;;;5.57;4.07;;;;;;;;;;7735996;23;20020;-62
2022/07/07 13:03:32;;;;;;;4.63;4.00;;;;;;;;;;7735716;23;20521;-62
2022/07/07 13:06:33;;;;;;;5.82;3.58;;;;;;;;;;7737087;23;20468;-62
2022/07/07 13:09:33;;;;;;;7.20;4.13;;;;;;;;;;7737483;23;20020;-62
2022/07/07 13:12:35;;;;;;;6.97;4.00;;;;;;;;;;7736103;23;20103;-62
2022/07/07 13:15:35;;;;;;;7.07;4.90;;;;;;;;;;7733003;23;20055;-61
2022/07/07 13:18:37;;;;;;;6.77;5.03;;;;;;;;;;7737736;23;20015;-61
2022/07/07 13:21:38;;;;;;;8.82;4.95;;;;;;;;;;7734533;23;20026;-62
2022/07/07 13:24:39;;;;;;;14.03;5.20;;;;;;;;;;7732562;23;20016;-62
2022/07/07 13:27:40;;;;;;;8.93;5.10;;;;;;;;;;7735986;23;20023;-62
2022/07/07 13:30:40;;;;;;;7.90;5.43;;;;;;;;;;7733003;23;20481;-62
2022/07/07 13:33:41;;;;;;;6.80;5.30;;;;;;;;;;7730716;23;20055;-63
2022/07/07 13:36:42;;;;;;;6.37;5.20;;;;;;;;;;7729155;23;20406;-62
2022/07/07 13:39:43;;;;;;;7.63;5.57;;;;;;;;;;7731219;23;20459;-62
2022/07/07 13:42:44;;;;;;;6.90;5.20;;;;;;;;;;7729710;23;20016;-63
2022/07/07 13:45:45;;;;;;;5.43;4.80;;;;;;;;;;7731092;23;20394;-62
2022/07/07 13:48:46;;;;;;;6.70;5.30;;;;;;;;;;7728760;23;20028;-61
2022/07/07 13:51:46;;;;;;;6.10;4.60;;;;;;;;;;7729435;23;20095;-62
2022/07/07 13:54:48;;;;;;;6.53;4.47;;;;;;;;;;7727426;23;20034;-61
2022/07/07 13:57:49;;;;;;;6.73;4.57;;;;;;;;;;7728321;23;20016;-61
2022/07/07 14:00:52;;;;;;;8.70;4.80;;;;;;;;;;7731625;23;20028;-61
2022/07/07 14:03:52;;;;;;;7.45;5.40;;;;;;;;;;7737403;23;20414;-63
2022/07/07 14:06:53;;;;;;;8.37;5.13;;;;;;;;;;7741932;23;20016;-63
2022/07/07 14:09:54;;;;;;;6.70;5.30;;;;;;;;;;7738476;23;20020;-61
2022/07/07 14:12:55;;;;;;;6.07;5.43;;;;;;;;;;7739009;23;21016;-62
2022/07/07 14:15:55;;;;;;;7.63;5.80;;;;;;;;;;7739075;23;20023;-62
2022/07/07 14:18:56;;;;;;;6.67;5.60;;;;;;;;;;7738651;23;20026;-63
2022/07/07 14:21:57;;;;;;;6.97;6.00;;;;;;;;;;7740088;23;20101;-60
2022/07/07 14:24:58;;;;;;;7.55;5.97;;;;;;;;;;7687951;23;20027;-61
2022/07/07 14:27:59;;;;;;;6.80;5.60;;;;;;;;;;7740705;23;20435;-63
2022/07/07 14:30:59;;;;;;;7.27;5.23;;;;;;;;;;7739936;23;20019;-62
2022/07/07 14:34:01;;;;;;;8.43;5.20;;;;;;;;;;7739769;23;20024;-62
2022/07/07 14:37:01;;;;;;;5.50;4.90;;;;;;;;;;7741768;23;20089;-62
2022/07/07 14:40:03;;;;;;;6.90;5.00;;;;;;;;;;7737659;23;20423;-60
2022/07/07 14:43:03;;;;;;;6.68;4.97;;;;;;;;;;7737137;23;20299;-62
2022/07/07 14:46:04;;;;;;;7.30;4.83;;;;;;;;;;7737288;23;20091;-63
2022/07/07 14:49:05;;;;;;;8.37;4.47;;;;;;;;;;7740239;23;20256;-63
2022/07/07 14:52:07;;;;;;;6.53;4.27;;;;;;;;;;7741453;23;20020;-63
2022/07/07 14:55:08;;;;;;;6.22;4.63;;;;;;;;;;7737485;23;20028;-63
2022/07/07 14:58:08;;;;;;;7.47;4.67;;;;;;;;;;7742513;23;20061;-61
2022/07/07 15:01:09;;;;;;;7.60;4.50;;;;;;;;;;7740131;23;20019;-61
2022/07/07 15:04:09;;;;;;;7.70;4.40;;;;;;;;;;7742953;23;20092;-62
2022/07/07 15:07:10;;;;;;;8.17;4.70;;;;;;;;;;7742722;23;20062;-62
2022/07/07 15:10:10;;;;;;;6.07;4.97;;;;;;;;;;7740988;23;20020;-63
2022/07/07 15:13:14;;;;;;;6.03;4.50;;;;;;;;;;7740456;23;20778;-63
2022/07/07 15:16:15;;;;;;;5.93;4.20;;;;;;;;;;7739437;23;20436;-61
2022/07/07 15:19:15;;;;;;;7.23;4.40;;;;;;;;;;7739777;23;20091;-63
2022/07/07 15:22:16;;;;;;;6.73;4.60;;;;;;;;;;7742313;23;20505;-63
2022/07/07 15:25:16;;;;;;;5.97;4.40;;;;;;;;;;7743345;23;20096;-60
2022/07/07 15:28:17;;;;;;;7.60;4.50;;;;;;;;;;7741766;23;20076;-63
2022/07/07 15:31:19;;;;;;;5.80;4.67;;;;;;;;;;7742751;23;20016;-62
2022/07/07 15:34:20;;;;;;;6.60;4.82;;;;;;;;;;7742482;23;20047;-60
2022/07/07 15:37:20;;;;;;;8.13;4.70;;;;;;;;;;7740115;23;20530;-63
2022/07/07 15:40:21;;;;;;;7.53;4.40;;;;;;;;;;7739794;23;20044;-61
2022/07/07 15:43:21;;;;;;;6.57;4.50;;;;;;;;;;7742648;23;20408;-61
2022/07/07 15:46:22;;;;;;;5.87;4.50;;;;;;;;;;7716519;23;20020;-61
2022/07/07 15:49:23;;;;;;;6.37;4.40;;;;;;;;;;7742807;23;20143;-63
2022/07/07 15:52:23;;;;;;;5.77;4.50;;;;;;;;;;7743203;23;20091;-64
2022/07/07 15:55:24;;;;;;;5.83;4.60;;;;;;;;;;7742108;23;20075;-64
2022/07/07 15:58:24;;;;;;;7.97;4.73;;;;;;;;;;7742682;23;20371;-64
2022/07/07 16:01:25;;;;;;;9.20;4.93;;;;;;;;;;7740727;23;20095;-64
2022/07/07 16:04:36;;;;;;;6.53;4.60;;;;;;;;;;7739329;23;20069;-64
2022/07/07 16:07:36;;;;;;;6.32;4.70;;;;;;;;;;7741985;23;20031;-64
2022/07/07 16:10:37;;;;;;;6.43;4.73;;;;;;;;;;7741903;23;20028;-61
2022/07/07 16:13:38;;;;;;;6.87;4.90;;;;;;;;;;7738962;23;20105;-64
2022/07/07 16:16:39;;;;;;;7.43;5.13;;;;;;;;;;7743233;23;20091;-64
2022/07/07 16:19:40;;;;;;;5.75;4.97;;;;;;;;;;7741623;23;20074;-63
2022/07/07 16:22:41;;;;;;;7.80;5.57;;;;;;;;;;7741102;23;20055;-64
2022/07/07 16:25:41;;;;;;;7.83;5.30;;;;;;;;;;7743849;23;20107;-64
2022/07/07 16:28:42;;;;;;;7.83;5.40;;;;;;;;;;7741923;23;20035;-60
2022/07/07 16:31:43;;;;;;;6.50;5.10;;;;;;;;;;7741377;23;20094;-64
2022/07/07 16:34:44;;;;;;;;;;;;;;;;;;7742284;23;20456;-63
2022/07/07 16:37:45;;;;;;;7.00;4.93;;;;;;;;;;7742112;23;20061;-63
2022/07/07 16:40:46;;;;;;;6.17;4.63;;;;;;;;;;7741870;23;20047;-62
2022/07/07 16:43:47;;;;;;;7.38;5.43;;;;;;;;;;7740954;23;20019;-64
2022/07/07 16:46:48;;;;;;;9.00;5.97;;;;;;;;;;7738897;23;20140;-61
2022/07/07 16:49:50;;;;;;;9.43;5.97;;;;;;;;;;7742553;23;20771;-62
2022/07/07 16:52:51;;;;;;;6.97;5.72;;;;;;;;;;7743135;23;20099;-64
2022/07/07 16:55:51;;;;;;;7.07;5.43;;;;;;;;;;7741438;23;20020;-63
2022/07/07 16:58:52;;;;;;;8.33;5.63;;;;;;;;;;7743163;23;20091;-63
2022/07/07 17:01:53;;;;;;;8.10;6.07;;;;;;;;;;7742070;23;20060;-63
2022/07/07 17:04:53;;;;;;;6.90;6.17;;;;;;;;;;7740276;23;20027;-63
2022/07/07 17:07:54;;;;;;;7.80;6.47;;;;;;;;;;7739459;23;20092;-63
2022/07/07 17:10:55;;;;;;;11.17;9.63;;;;;;;;;;7742714;23;20020;-62
2022/07/07 17:13:55;;;;;;;12.73;7.53;;;;;;;;;;7741029;23;20019;-63
2022/07/07 17:16:57;;;;;;;10.93;7.40;;;;;;;;;;7739391;23;20107;-63
2022/07/07 17:19:57;;;;;;;17.67;10.95;;;;;;;;;;7744625;23;20024;-62
2022/07/07 17:22:58;;;;;;;15.93;9.20;;;;;;;;;;7740268;23;20016;-63
2022/07/07 17:25:59;;;;;;;10.93;8.13;;;;;;;;;;7745017;23;20083;-63
2022/07/07 17:28:59;;;;;;;9.43;7.47;;;;;;;;;;7745416;23;20013;-63
2022/07/07 17:32:00;;;;;;;8.60;5.40;;;;;;;;;;7746268;23;20099;-62
2022/07/07 17:35:01;;;;;;;7.60;5.80;;;;;;;;;;7745762;23;20388;-62
2022/07/07 17:38:01;;;;;;;8.17;5.53;;;;;;;;;;7746461;23;20024;-62
2022/07/07 17:41:03;;;;;;;6.60;5.57;;;;;;;;;;7741199;23;20539;-62
2022/07/07 17:44:04;;;;;;;7.45;5.55;;;;;;;;;;7738707;23;20543;-62
2022/07/07 17:47:05;;;;;;;9.20;5.97;;;;;;;;;;7740423;23;20024;-63
2022/07/07 17:50:06;;;;;;;8.05;6.10;;;;;;;;;;7741985;23;20063;-63
2022/07/07 17:53:08;;;;;;;7.85;5.85;;;;;;;;;;7743537;23;20050;-62
2022/07/07 17:56:08;;;;;;;7.35;5.32;;;;;;;;;;7746838;23;20016;-62
2022/07/07 17:59:09;;;;;;;8.10;5.80;;;;;;;;;;7746141;23;20017;-63
2022/07/07 18:02:12;;;;;;;7.27;5.80;;;;;;;;;;7745373;23;20051;-64
2022/07/07 18:05:13;;;;;;;10.45;6.47;;;;;;;;;;7753141;23;20043;-63